createdAt,value
2023-12-03T00:00:56.495Z,90.23
2023-12-03T00:01:56.523Z,90.65
2023-12-03T00:02:56.457Z,90.55
2023-12-03T00:03:56.433Z,90.44
2023-12-03T00:04:56.411Z,89.91
2023-12-03T00:05:56.468Z,90.01
2023-12-03T00:06:56.498Z,90.33
2023-12-03T00:07:56.373Z,90.44
2023-12-03T00:08:56.334Z,89.70
2023-12-03T00:09:56.330Z,89.70
2023-12-03T00:10:56.301Z,89.59
2023-12-03T00:11:56.717Z,89.07
2023-12-03T00:12:56.275Z,89.07
2023-12-03T00:13:56.282Z,89.59
2023-12-03T00:14:56.261Z,90.12
2023-12-03T00:15:56.258Z,90.23
2023-12-03T00:16:56.328Z,90.12
2023-12-03T00:17:56.533Z,89.91
2023-12-03T00:18:56.405Z,89.81
2023-12-03T00:19:56.187Z,90.01
2023-12-03T00:20:56.171Z,90.23
2023-12-03T00:21:56.208Z,90.44
2023-12-03T00:22:56.177Z,90.55
2023-12-03T00:23:56.141Z,90.55
2023-12-03T00:24:56.129Z,90.86
2023-12-03T00:25:56.132Z,90.97
2023-12-03T00:26:56.106Z,91.17
2023-12-03T00:27:56.077Z,91.39
2023-12-03T00:28:56.128Z,90.75
2023-12-03T00:29:56.093Z,90.23
2023-12-03T00:30:56.055Z,90.44
2023-12-03T00:31:56.033Z,90.55
2023-12-03T00:32:56.048Z,90.44
2023-12-03T00:33:56.118Z,90.23
2023-12-03T00:34:56.022Z,90.55
2023-12-03T00:35:56.066Z,90.75
2023-12-03T00:36:55.992Z,90.55
2023-12-03T00:37:55.952Z,90.33
2023-12-03T00:38:55.937Z,89.84
2023-12-03T00:39:56.199Z,89.64
2023-12-03T00:40:55.913Z,90.16
2023-12-03T00:41:55.887Z,90.58
2023-12-03T00:42:56.019Z,91.00
2023-12-03T00:43:55.874Z,91.32
2023-12-03T00:44:55.882Z,91.53
2023-12-03T00:45:55.863Z,91.53
2023-12-03T00:46:55.830Z,91.53
2023-12-03T00:47:55.890Z,91.53
2023-12-03T00:48:55.950Z,91.32
2023-12-03T00:49:55.844Z,91.32
2023-12-03T00:50:55.849Z,91.64
2023-12-03T00:51:55.805Z,91.74
2023-12-03T00:52:55.769Z,91.74
2023-12-03T00:53:55.742Z,91.42
2023-12-03T00:54:55.734Z,91.32
2023-12-03T00:55:55.744Z,91.42
2023-12-03T00:56:56.204Z,91.53
2023-12-03T00:57:55.694Z,91.42
2023-12-03T00:58:55.667Z,91.22
2023-12-03T00:59:55.658Z,91.11
2023-12-03T01:00:55.655Z,90.90
2023-12-03T01:01:55.665Z,91.11
2023-12-03T01:02:55.664Z,91.22
2023-12-03T01:03:55.645Z,90.90
2023-12-03T01:04:55.880Z,90.58
2023-12-03T01:05:55.610Z,90.26
2023-12-03T01:06:55.598Z,90.58
2023-12-03T01:07:55.601Z,90.90
2023-12-03T01:08:55.557Z,91.32
2023-12-03T01:09:55.576Z,91.74
2023-12-03T01:10:55.516Z,92.27
2023-12-03T01:11:55.521Z,92.48
2023-12-03T01:12:55.641Z,92.48
2023-12-03T01:13:55.510Z,92.27
2023-12-03T01:14:55.468Z,92.16
2023-12-03T01:15:55.454Z,91.96
2023-12-03T01:16:55.455Z,91.85
2023-12-03T01:17:55.472Z,91.85
2023-12-03T01:18:55.687Z,91.85
2023-12-03T01:19:55.713Z,91.96
2023-12-03T01:20:55.398Z,92.06
2023-12-03T01:21:55.415Z,91.74
2023-12-03T01:22:55.378Z,91.74
2023-12-03T01:23:55.357Z,91.96
2023-12-03T01:24:55.360Z,91.96
2023-12-03T01:25:55.346Z,91.96
2023-12-03T01:26:55.328Z,91.74
2023-12-03T01:27:55.321Z,91.64
2023-12-03T01:28:55.295Z,91.64
2023-12-03T01:29:55.275Z,91.85
2023-12-03T01:30:55.334Z,91.85
2023-12-03T01:31:55.267Z,91.85
2023-12-03T01:32:55.353Z,91.68
2023-12-03T01:33:55.364Z,91.57
2023-12-03T01:34:55.314Z,91.36
2023-12-03T01:35:55.207Z,91.26
2023-12-03T01:36:55.744Z,91.26
2023-12-03T01:37:55.184Z,91.15
2023-12-03T01:38:55.172Z,91.05
2023-12-03T01:39:55.134Z,91.05
2023-12-03T01:40:55.151Z,91.15
2023-12-03T01:41:55.183Z,91.15
2023-12-03T01:42:55.150Z,91.05
2023-12-03T01:43:55.127Z,91.05
2023-12-03T01:44:55.076Z,90.94
2023-12-03T01:45:55.097Z,90.62
2023-12-03T01:46:55.059Z,90.10
2023-12-03T01:47:55.106Z,89.78
2023-12-03T01:48:55.096Z,90.20
2023-12-03T01:49:55.075Z,90.52
2023-12-03T01:50:55.005Z,90.83
2023-12-03T01:51:55.025Z,91.05
2023-12-03T01:52:55.076Z,90.35
2023-12-03T01:53:54.952Z,90.45
2023-12-03T01:54:54.964Z,90.45
2023-12-03T01:55:54.935Z,90.67
2023-12-03T01:56:54.926Z,90.98
2023-12-03T01:57:55.013Z,91.19
2023-12-03T01:58:54.971Z,90.98
2023-12-03T01:59:54.896Z,90.98
2023-12-03T02:00:54.891Z,90.98
2023-12-03T02:01:54.943Z,90.77
2023-12-03T02:02:54.882Z,90.88
2023-12-03T02:03:54.901Z,91.09
2023-12-03T02:04:55.082Z,91.19
2023-12-03T02:05:54.975Z,91.30
2023-12-03T02:06:54.871Z,91.19
2023-12-03T02:07:54.780Z,90.88
2023-12-03T02:08:54.769Z,90.88
2023-12-03T02:09:54.769Z,90.98
2023-12-03T02:10:54.769Z,91.09
2023-12-03T02:11:54.727Z,91.19
2023-12-03T02:12:54.727Z,91.19
2023-12-03T02:13:54.696Z,90.88
2023-12-03T02:14:54.693Z,90.77
2023-12-03T02:15:54.722Z,90.98
2023-12-03T02:16:54.695Z,90.98
2023-12-03T02:17:54.706Z,90.98
2023-12-03T02:18:54.732Z,90.98
2023-12-03T02:19:54.627Z,90.98
2023-12-03T02:20:54.621Z,90.77
2023-12-03T02:21:54.701Z,90.88
2023-12-03T02:22:54.593Z,90.98
2023-12-03T02:23:54.568Z,91.30
2023-12-03T02:24:54.567Z,91.19
2023-12-03T02:25:54.533Z,90.45
2023-12-03T02:26:54.546Z,89.93
2023-12-03T02:27:54.551Z,89.82
2023-12-03T02:28:54.532Z,90.03
2023-12-03T02:29:54.519Z,90.35
2023-12-03T02:30:54.574Z,90.56
2023-12-03T02:31:54.458Z,90.88
2023-12-03T02:32:54.501Z,90.45
2023-12-03T02:33:54.524Z,90.67
2023-12-03T02:34:54.461Z,90.67
2023-12-03T02:35:54.414Z,90.67
2023-12-03T02:36:54.450Z,90.14
2023-12-03T02:37:54.400Z,89.82
2023-12-03T02:38:54.401Z,90.25
2023-12-03T02:39:54.365Z,90.45
2023-12-03T02:40:54.339Z,90.56
2023-12-03T02:41:54.345Z,90.14
2023-12-03T02:42:54.349Z,90.03
2023-12-03T02:43:54.339Z,90.25
2023-12-03T02:44:54.315Z,90.45
2023-12-03T02:45:54.311Z,90.56
2023-12-03T02:46:54.273Z,90.67
2023-12-03T02:47:54.431Z,90.88
2023-12-03T02:48:54.292Z,90.98
2023-12-03T02:49:54.272Z,90.50
2023-12-03T02:50:54.228Z,90.39
2023-12-03T02:51:54.225Z,90.28
2023-12-03T02:52:54.218Z,89.86
2023-12-03T02:53:54.174Z,89.97
2023-12-03T02:54:54.178Z,90.28
2023-12-03T02:55:54.190Z,90.39
2023-12-03T02:56:54.138Z,90.08
2023-12-03T02:57:54.167Z,89.02
2023-12-03T02:58:54.124Z,88.81
2023-12-03T02:59:54.129Z,89.12
2023-12-03T03:00:54.267Z,89.12
2023-12-03T03:01:54.094Z,89.12
2023-12-03T03:02:54.064Z,89.23
2023-12-03T03:03:54.136Z,89.44
2023-12-03T03:04:54.053Z,89.86
2023-12-03T03:05:54.093Z,89.76
2023-12-03T03:06:54.061Z,89.76
2023-12-03T03:07:53.999Z,89.34
2023-12-03T03:08:53.988Z,88.92
2023-12-03T03:09:53.979Z,89.34
2023-12-03T03:10:53.959Z,88.70
2023-12-03T03:11:54.002Z,88.81
2023-12-03T03:12:54.014Z,89.12
2023-12-03T03:13:53.924Z,89.23
2023-12-03T03:14:53.908Z,89.44
2023-12-03T03:15:53.940Z,89.23
2023-12-03T03:16:53.887Z,88.70
2023-12-03T03:17:54.245Z,88.49
2023-12-03T03:18:54.192Z,88.60
2023-12-03T03:19:53.879Z,89.23
2023-12-03T03:20:54.008Z,89.44
2023-12-03T03:21:53.837Z,89.54
2023-12-03T03:22:53.848Z,88.07
2023-12-03T03:23:54.248Z,87.65
2023-12-03T03:24:53.875Z,88.18
2023-12-03T03:25:53.800Z,88.81
2023-12-03T03:26:53.781Z,88.92
2023-12-03T03:27:53.826Z,88.92
2023-12-03T03:28:53.728Z,89.02
2023-12-03T03:29:54.228Z,89.34
2023-12-03T03:30:53.920Z,89.44
2023-12-03T03:31:53.695Z,89.12
2023-12-03T03:32:53.731Z,88.70
2023-12-03T03:33:53.746Z,88.07
2023-12-03T03:34:53.705Z,87.65
2023-12-03T03:35:53.748Z,87.02
2023-12-03T03:36:53.651Z,86.70
2023-12-03T03:37:53.627Z,86.38
2023-12-03T03:38:53.614Z,86.84
2023-12-03T03:39:53.635Z,87.16
2023-12-03T03:40:53.580Z,87.48
2023-12-03T03:41:53.582Z,88.21
2023-12-03T03:42:53.587Z,87.79
2023-12-03T03:43:53.539Z,87.05
2023-12-03T03:44:53.515Z,86.84
2023-12-03T03:45:53.547Z,87.16
2023-12-03T03:46:53.496Z,87.48
2023-12-03T03:47:53.549Z,88.01
2023-12-03T03:48:53.584Z,88.43
2023-12-03T03:49:53.452Z,88.64
2023-12-03T03:50:53.489Z,88.21
2023-12-03T03:51:53.538Z,88.01
2023-12-03T03:52:53.442Z,88.11
2023-12-03T03:53:53.407Z,88.28
2023-12-03T03:54:53.406Z,88.39
2023-12-03T03:55:53.378Z,88.39
2023-12-03T03:56:53.469Z,88.49
2023-12-03T03:57:53.362Z,88.81
2023-12-03T03:58:53.756Z,88.92
2023-12-03T03:59:53.337Z,88.70
2023-12-03T04:00:53.328Z,88.60
2023-12-03T04:01:53.341Z,88.60
2023-12-03T04:02:53.294Z,87.76
2023-12-03T04:03:53.352Z,87.96
2023-12-03T04:04:53.870Z,88.28
2023-12-03T04:05:53.327Z,88.39
2023-12-03T04:06:53.339Z,88.18
2023-12-03T04:07:53.237Z,88.28
2023-12-03T04:08:53.215Z,88.49
2023-12-03T04:09:53.278Z,88.49
2023-12-03T04:10:53.203Z,88.28
2023-12-03T04:11:53.171Z,88.07
2023-12-03T04:12:53.200Z,88.28
2023-12-03T04:13:53.145Z,88.28
2023-12-03T04:14:53.224Z,87.76
2023-12-03T04:15:53.204Z,87.76
2023-12-03T04:16:53.103Z,87.76
2023-12-03T04:17:53.147Z,87.86
2023-12-03T04:18:53.189Z,87.96
2023-12-03T04:19:53.128Z,88.01
2023-12-03T04:20:53.143Z,87.76
2023-12-03T04:21:53.120Z,87.79
2023-12-03T04:22:53.020Z,87.65
2023-12-03T04:23:53.041Z,87.90
2023-12-03T04:24:53.055Z,87.96
2023-12-03T04:25:52.995Z,88.18
2023-12-03T04:26:53.018Z,87.86
2023-12-03T04:27:52.995Z,87.23
2023-12-03T04:28:52.941Z,87.33
2023-12-03T04:29:52.932Z,87.65
2023-12-03T04:30:55.501Z,87.96
2023-12-03T04:31:52.915Z,88.18
2023-12-03T04:32:53.077Z,88.18
2023-12-03T04:33:52.929Z,88.28
2023-12-03T04:34:52.982Z,88.28
2023-12-03T04:35:52.863Z,88.18
2023-12-03T04:36:52.900Z,87.65
2023-12-03T04:37:52.847Z,87.12
2023-12-03T04:38:52.847Z,86.80
2023-12-03T04:39:52.842Z,87.02
2023-12-03T04:40:52.786Z,87.23
2023-12-03T04:41:52.782Z,86.74
2023-12-03T04:42:52.843Z,87.16
2023-12-03T04:43:52.800Z,87.37
2023-12-03T04:44:52.792Z,87.58
2023-12-03T04:45:52.765Z,86.84
2023-12-03T04:46:52.735Z,87.05
2023-12-03T04:47:52.772Z,86.95
2023-12-03T04:48:52.864Z,87.27
2023-12-03T04:49:52.679Z,87.58
2023-12-03T04:50:52.770Z,86.99
2023-12-03T04:51:52.709Z,86.88
2023-12-03T04:52:52.630Z,86.57
2023-12-03T04:53:52.633Z,86.35
2023-12-03T04:54:52.652Z,86.57
2023-12-03T04:55:52.637Z,86.99
2023-12-03T04:56:52.639Z,87.41
2023-12-03T04:57:52.716Z,87.73
2023-12-03T04:58:52.613Z,88.57
2023-12-03T04:59:52.549Z,88.78
2023-12-03T05:00:52.606Z,88.78
2023-12-03T05:01:52.597Z,88.68
2023-12-03T05:02:52.535Z,88.53
2023-12-03T05:03:52.549Z,88.43
2023-12-03T05:04:52.492Z,88.43
2023-12-03T05:05:52.475Z,88.64
2023-12-03T05:06:52.498Z,88.64
2023-12-03T05:07:52.469Z,87.90
2023-12-03T05:08:52.424Z,88.11
2023-12-03T05:09:52.445Z,88.43
2023-12-03T05:10:52.407Z,88.53
2023-12-03T05:11:52.384Z,88.43
2023-12-03T05:12:52.458Z,88.75
2023-12-03T05:13:52.382Z,88.43
2023-12-03T05:14:52.338Z,88.21
2023-12-03T05:15:52.384Z,88.32
2023-12-03T05:16:52.333Z,88.43
2023-12-03T05:17:52.349Z,88.11
2023-12-03T05:18:52.364Z,88.21
2023-12-03T05:19:52.796Z,88.21
2023-12-03T05:20:52.279Z,88.21
2023-12-03T05:21:52.315Z,88.32
2023-12-03T05:22:52.255Z,88.75
2023-12-03T05:23:52.261Z,89.06
2023-12-03T05:24:52.263Z,89.06
2023-12-03T05:25:52.302Z,88.64
2023-12-03T05:26:52.190Z,88.53
2023-12-03T05:27:52.361Z,88.11
2023-12-03T05:28:52.169Z,88.15
2023-12-03T05:29:52.142Z,88.36
2023-12-03T05:30:52.216Z,88.89
2023-12-03T05:31:52.155Z,89.20
2023-12-03T05:32:52.168Z,89.52
2023-12-03T05:33:52.153Z,89.73
2023-12-03T05:34:52.098Z,89.73
2023-12-03T05:35:52.081Z,89.10
2023-12-03T05:36:54.315Z,88.78
2023-12-03T05:37:52.095Z,88.89
2023-12-03T05:38:52.057Z,89.20
2023-12-03T05:39:52.063Z,89.10
2023-12-03T05:40:52.016Z,89.31
2023-12-03T05:41:51.985Z,89.52
2023-12-03T05:42:52.129Z,89.73
2023-12-03T05:43:52.018Z,90.05
2023-12-03T05:44:51.958Z,90.37
2023-12-03T05:45:52.036Z,90.26
2023-12-03T05:46:52.006Z,89.31
2023-12-03T05:47:51.988Z,89.20
2023-12-03T05:48:52.115Z,89.42
2023-12-03T05:49:51.934Z,89.63
2023-12-03T05:50:51.895Z,90.05
2023-12-03T05:51:51.890Z,90.37
2023-12-03T05:52:51.858Z,90.47
2023-12-03T05:53:51.841Z,90.58
2023-12-03T05:54:51.879Z,90.79
2023-12-03T05:55:51.858Z,90.89
2023-12-03T05:56:51.801Z,90.89
2023-12-03T05:57:51.851Z,90.89
2023-12-03T05:58:51.782Z,91.00
2023-12-03T05:59:51.748Z,91.21
2023-12-03T06:00:51.812Z,91.31
2023-12-03T06:01:51.772Z,91.31
2023-12-03T06:02:51.857Z,91.42
2023-12-03T06:03:51.841Z,91.21
2023-12-03T06:04:51.964Z,90.96
2023-12-03T06:05:51.797Z,90.58
2023-12-03T06:06:51.782Z,90.43
2023-12-03T06:07:51.664Z,90.43
2023-12-03T06:08:51.645Z,90.54
2023-12-03T06:09:51.646Z,90.64
2023-12-03T06:10:52.310Z,90.75
2023-12-03T06:11:51.648Z,90.85
2023-12-03T06:12:51.638Z,90.96
2023-12-03T06:13:51.575Z,91.17
2023-12-03T06:14:51.594Z,90.96
2023-12-03T06:15:51.645Z,90.75
2023-12-03T06:16:51.535Z,90.64
2023-12-03T06:17:51.664Z,90.64
2023-12-03T06:18:51.646Z,90.64
2023-12-03T06:19:51.501Z,90.75
2023-12-03T06:20:51.528Z,90.75
2023-12-03T06:21:51.527Z,90.85
2023-12-03T06:22:51.462Z,90.96
2023-12-03T06:23:51.520Z,91.17
2023-12-03T06:24:51.521Z,91.28
2023-12-03T06:25:51.433Z,91.28
2023-12-03T06:26:51.430Z,90.96
2023-12-03T06:27:51.421Z,90.85
2023-12-03T06:28:52.322Z,90.75
2023-12-03T06:29:51.426Z,90.54
2023-12-03T06:30:51.405Z,90.54
2023-12-03T06:31:51.467Z,90.54
2023-12-03T06:32:51.391Z,90.43
2023-12-03T06:33:51.498Z,90.33
2023-12-03T06:34:51.367Z,90.22
2023-12-03T06:35:51.330Z,90.26
2023-12-03T06:36:51.320Z,90.37
2023-12-03T06:37:51.298Z,90.43
2023-12-03T06:38:51.274Z,90.64
2023-12-03T06:39:51.281Z,90.64
2023-12-03T06:40:51.264Z,90.54
2023-12-03T06:41:51.252Z,90.54
2023-12-03T06:42:51.259Z,90.37
2023-12-03T06:43:51.205Z,90.26
2023-12-03T06:44:51.289Z,90.58
2023-12-03T06:45:51.267Z,90.89
2023-12-03T06:46:51.821Z,91.11
2023-12-03T06:47:51.232Z,91.21
2023-12-03T06:48:51.233Z,91.21
2023-12-03T06:49:51.109Z,91.42
2023-12-03T06:50:51.117Z,91.53
2023-12-03T06:51:51.130Z,91.63
2023-12-03T06:52:51.106Z,91.85
2023-12-03T06:53:51.062Z,91.95
2023-12-03T06:54:51.116Z,91.95
2023-12-03T06:55:51.045Z,91.95
2023-12-03T06:56:51.851Z,91.63
2023-12-03T06:57:51.115Z,91.42
2023-12-03T06:58:51.041Z,91.31
2023-12-03T06:59:51.047Z,91.11
2023-12-03T07:00:51.880Z,90.89
2023-12-03T07:01:51.027Z,91.00
2023-12-03T07:02:50.955Z,91.11
2023-12-03T07:03:51.057Z,91.00
2023-12-03T07:04:50.970Z,91.11
2023-12-03T07:05:51.028Z,91.31
2023-12-03T07:06:51.882Z,91.31
2023-12-03T07:07:50.908Z,91.42
2023-12-03T07:08:50.892Z,91.21
2023-12-03T07:09:50.958Z,90.89
2023-12-03T07:10:50.919Z,90.58
2023-12-03T07:11:50.888Z,90.89
2023-12-03T07:12:51.882Z,91.21
2023-12-03T07:13:51.819Z,91.42
2023-12-03T07:14:50.829Z,91.63
2023-12-03T07:15:50.896Z,91.85
2023-12-03T07:16:50.786Z,91.95
2023-12-03T07:17:50.782Z,91.95
2023-12-03T07:18:50.780Z,91.85
2023-12-03T07:19:50.790Z,91.74
2023-12-03T07:20:50.745Z,91.63
2023-12-03T07:21:50.736Z,91.63
2023-12-03T07:22:50.687Z,91.70
2023-12-03T07:23:50.716Z,91.28
2023-12-03T07:24:50.696Z,91.28
2023-12-03T07:25:50.646Z,91.38
2023-12-03T07:26:50.686Z,91.38
2023-12-03T07:27:50.649Z,91.38
2023-12-03T07:28:50.631Z,91.49
2023-12-03T07:29:50.596Z,91.59
2023-12-03T07:30:50.645Z,91.70
2023-12-03T07:31:50.563Z,91.49
2023-12-03T07:32:50.639Z,91.28
2023-12-03T07:33:50.643Z,91.06
2023-12-03T07:34:50.529Z,90.96
2023-12-03T07:35:50.512Z,90.75
2023-12-03T07:36:50.568Z,90.75
2023-12-03T07:37:50.507Z,90.75
2023-12-03T07:38:50.482Z,90.75
2023-12-03T07:39:50.501Z,90.64
2023-12-03T07:40:50.446Z,90.54
2023-12-03T07:41:50.485Z,90.54
2023-12-03T07:42:50.541Z,90.50
2023-12-03T07:43:50.414Z,90.60
2023-12-03T07:44:50.398Z,90.60
2023-12-03T07:45:50.445Z,90.81
2023-12-03T07:46:50.365Z,91.02
2023-12-03T07:47:50.429Z,91.02
2023-12-03T07:48:50.450Z,90.70
2023-12-03T07:49:50.408Z,90.50
2023-12-03T07:50:50.899Z,90.39
2023-12-03T07:51:50.479Z,90.70
2023-12-03T07:52:50.305Z,90.45
2023-12-03T07:53:50.284Z,90.67
2023-12-03T07:54:50.317Z,90.98
2023-12-03T07:55:50.242Z,91.05
2023-12-03T07:56:50.282Z,90.73
2023-12-03T07:57:50.250Z,90.26
2023-12-03T07:58:50.207Z,90.06
2023-12-03T07:59:50.261Z,89.84
2023-12-03T08:00:50.209Z,89.49
2023-12-03T08:01:50.203Z,89.03
2023-12-03T08:02:50.825Z,88.08
2023-12-03T08:03:50.173Z,87.76
2023-12-03T08:04:50.241Z,87.73
2023-12-03T08:05:50.251Z,87.41
2023-12-03T08:06:50.315Z,87.10
2023-12-03T08:07:50.239Z,86.63
2023-12-03T08:08:50.131Z,86.53
2023-12-03T08:09:50.123Z,86.53
2023-12-03T08:10:50.057Z,86.21
2023-12-03T08:11:50.827Z,85.58
2023-12-03T08:12:50.056Z,85.37
2023-12-03T08:13:50.032Z,85.65
2023-12-03T08:14:50.020Z,85.13
2023-12-03T08:15:50.024Z,85.33
2023-12-03T08:16:50.024Z,84.81
2023-12-03T08:17:50.013Z,85.23
2023-12-03T08:18:50.189Z,85.23
2023-12-03T08:19:49.943Z,85.65
2023-12-03T08:20:49.926Z,86.07
2023-12-03T08:21:49.932Z,85.44
2023-12-03T08:22:49.919Z,84.32
2023-12-03T08:23:49.890Z,84.84
2023-12-03T08:24:49.913Z,85.37
2023-12-03T08:25:49.860Z,86.11
2023-12-03T08:26:49.872Z,86.53
2023-12-03T08:27:49.951Z,86.43
2023-12-03T08:28:49.878Z,85.69
2023-12-03T08:29:49.812Z,85.58
2023-12-03T08:30:49.882Z,85.65
2023-12-03T08:31:49.798Z,85.75
2023-12-03T08:32:49.814Z,85.55
2023-12-03T08:33:49.908Z,85.79
2023-12-03T08:34:49.808Z,86.53
2023-12-03T08:35:49.736Z,86.53
2023-12-03T08:36:50.371Z,86.11
2023-12-03T08:37:49.738Z,86.11
2023-12-03T08:38:50.341Z,86.43
2023-12-03T08:39:49.767Z,86.43
2023-12-03T08:40:49.691Z,86.63
2023-12-03T08:41:50.333Z,86.32
2023-12-03T08:42:49.738Z,86.32
2023-12-03T08:43:49.632Z,85.90
2023-12-03T08:44:52.229Z,86.21
2023-12-03T08:45:49.627Z,86.60
2023-12-03T08:46:49.774Z,86.80
2023-12-03T08:47:50.376Z,86.70
2023-12-03T08:48:49.662Z,86.28
2023-12-03T08:49:49.606Z,86.18
2023-12-03T08:50:49.545Z,86.07
2023-12-03T08:51:49.584Z,85.61
2023-12-03T08:52:49.512Z,85.61
2023-12-03T08:53:49.498Z,85.50
2023-12-03T08:54:49.547Z,85.82
2023-12-03T08:55:49.486Z,85.61
2023-12-03T08:56:50.378Z,84.67
2023-12-03T08:57:49.558Z,84.98
2023-12-03T08:58:49.452Z,84.77
2023-12-03T08:59:49.409Z,84.52
2023-12-03T09:00:49.398Z,84.63
2023-12-03T09:01:49.478Z,85.05
2023-12-03T09:02:49.437Z,85.57
2023-12-03T09:03:49.475Z,85.47
2023-12-03T09:04:49.379Z,84.20
2023-12-03T09:05:49.364Z,84.06
2023-12-03T09:06:49.993Z,83.71
2023-12-03T09:07:49.876Z,83.78
2023-12-03T09:08:49.351Z,82.83
2023-12-03T09:09:49.340Z,81.43
2023-12-03T09:10:49.289Z,80.49
2023-12-03T09:11:49.277Z,81.23
2023-12-03T09:12:49.286Z,80.98
2023-12-03T09:13:49.247Z,81.99
2023-12-03T09:14:49.289Z,79.27
2023-12-03T09:15:49.266Z,78.95
2023-12-03T09:16:49.208Z,79.86
2023-12-03T09:17:49.255Z,80.24
2023-12-03T09:18:49.208Z,79.40
2023-12-03T09:19:49.233Z,78.88
2023-12-03T09:20:49.208Z,79.26
2023-12-03T09:21:49.262Z,77.59
2023-12-03T09:22:49.117Z,76.75
2023-12-03T09:23:49.113Z,76.65
2023-12-03T09:24:49.269Z,77.76
2023-12-03T09:25:49.108Z,76.82
2023-12-03T09:26:49.849Z,76.16
2023-12-03T09:27:49.129Z,77.41
2023-12-03T09:28:49.044Z,77.48
2023-12-03T09:29:49.046Z,76.65
2023-12-03T09:30:49.081Z,76.51
2023-12-03T09:31:49.850Z,75.05
2023-12-03T09:32:49.014Z,75.46
2023-12-03T09:33:49.018Z,74.84
2023-12-03T09:34:48.965Z,74.73
2023-12-03T09:35:48.964Z,74.14
2023-12-03T09:36:49.003Z,74.52
2023-12-03T09:37:48.982Z,75.78
2023-12-03T09:38:48.906Z,76.51
2023-12-03T09:39:48.926Z,76.26
2023-12-03T09:40:48.882Z,75.32
2023-12-03T09:41:48.925Z,75.43
2023-12-03T09:42:49.008Z,76.26
2023-12-03T09:43:48.837Z,76.96
2023-12-03T09:44:48.821Z,76.82
2023-12-03T09:45:48.885Z,77.00
2023-12-03T09:46:48.801Z,77.06
2023-12-03T09:47:48.849Z,76.54
2023-12-03T09:48:48.980Z,74.04
2023-12-03T09:49:48.798Z,75.40
2023-12-03T09:50:48.728Z,74.74
2023-12-03T09:51:48.742Z,73.59
2023-12-03T09:52:48.731Z,73.49
2023-12-03T09:53:48.740Z,73.86
2023-12-03T09:54:48.740Z,72.20
2023-12-03T09:55:49.346Z,72.62
2023-12-03T09:56:48.710Z,73.14
2023-12-03T09:57:48.739Z,72.20
2023-12-03T09:58:48.633Z,73.00
2023-12-03T09:59:48.609Z,72.17
2023-12-03T10:00:48.670Z,72.48
2023-12-03T10:01:48.592Z,71.86
2023-12-03T10:02:48.609Z,72.38
2023-12-03T10:03:48.608Z,71.30
2023-12-03T10:04:48.679Z,71.30
2023-12-03T10:05:48.654Z,69.32
2023-12-03T10:06:48.583Z,70.68
2023-12-03T10:07:48.517Z,70.92
2023-12-03T10:08:48.495Z,71.44
2023-12-03T10:09:48.571Z,71.20
2023-12-03T10:10:48.469Z,70.89
2023-12-03T10:11:48.494Z,72.24
2023-12-03T10:12:48.485Z,71.37
2023-12-03T10:13:48.418Z,70.43
2023-12-03T10:14:48.416Z,69.71
2023-12-03T10:15:48.466Z,70.33
2023-12-03T10:16:48.385Z,70.43
2023-12-03T10:17:48.451Z,68.88
2023-12-03T10:18:48.429Z,68.56
2023-12-03T10:19:48.347Z,68.88
2023-12-03T10:20:48.346Z,69.40
2023-12-03T10:21:48.353Z,68.56
2023-12-03T10:22:48.338Z,69.32
2023-12-03T10:23:48.349Z,68.91
2023-12-03T10:24:48.358Z,69.74
2023-12-03T10:25:48.270Z,69.84
2023-12-03T10:26:48.265Z,70.64
2023-12-03T10:27:48.297Z,69.09
2023-12-03T10:28:48.266Z,69.40
2023-12-03T10:29:48.219Z,68.46
2023-12-03T10:30:48.253Z,68.25
2023-12-03T10:31:48.173Z,68.98
2023-12-03T10:32:48.209Z,68.43
2023-12-03T10:33:48.243Z,68.12
2023-12-03T10:34:48.183Z,68.12
2023-12-03T10:35:48.134Z,68.43
2023-12-03T10:36:48.177Z,67.70
2023-12-03T10:37:48.113Z,67.39
2023-12-03T10:38:48.111Z,68.08
2023-12-03T10:39:48.122Z,66.94
2023-12-03T10:40:48.075Z,66.21
2023-12-03T10:41:48.071Z,66.31
2023-12-03T10:42:48.316Z,66.53
2023-12-03T10:43:48.028Z,67.36
2023-12-03T10:44:48.032Z,66.66
2023-12-03T10:45:48.000Z,66.00
2023-12-03T10:46:47.985Z,65.69
2023-12-03T10:47:48.078Z,66.63
2023-12-03T10:48:48.008Z,65.80
2023-12-03T10:49:48.000Z,67.05
2023-12-03T10:50:47.952Z,67.64
2023-12-03T10:51:48.188Z,66.60
2023-12-03T10:52:47.940Z,67.74
2023-12-03T10:53:47.887Z,68.44
2023-12-03T10:54:47.999Z,66.99
2023-12-03T10:55:47.865Z,66.78
2023-12-03T10:56:47.870Z,66.91
2023-12-03T10:57:47.894Z,66.91
2023-12-03T10:58:47.848Z,67.74
2023-12-03T10:59:47.815Z,67.50
2023-12-03T11:00:47.843Z,67.09
2023-12-03T11:01:47.876Z,68.02
2023-12-03T11:02:50.246Z,66.78
2023-12-03T11:03:47.876Z,66.57
2023-12-03T11:04:47.802Z,67.30
2023-12-03T11:05:47.820Z,67.99
2023-12-03T11:06:48.440Z,67.86
2023-12-03T11:07:47.834Z,67.13
2023-12-03T11:08:47.782Z,65.23
2023-12-03T11:09:50.830Z,61.71
2023-12-03T11:10:47.671Z,62.95
2023-12-03T11:11:47.659Z,61.91
2023-12-03T11:12:47.692Z,63.09
2023-12-03T11:13:47.734Z,64.23
2023-12-03T11:14:47.633Z,64.54
2023-12-03T11:15:47.653Z,65.47
2023-12-03T11:16:47.575Z,65.78
2023-12-03T11:17:47.559Z,64.61
2023-12-03T11:18:47.651Z,65.13
2023-12-03T11:19:53.193Z,64.89
2023-12-03T11:20:47.538Z,64.82
2023-12-03T11:21:47.547Z,66.61
2023-12-03T11:22:47.499Z,66.17
2023-12-03T11:23:47.489Z,66.17
2023-12-03T11:24:47.475Z,66.89
2023-12-03T11:25:47.532Z,65.75
2023-12-03T11:26:47.454Z,66.24
2023-12-03T11:27:47.513Z,66.72
2023-12-03T11:28:47.423Z,65.59
2023-12-03T11:29:47.413Z,65.97
2023-12-03T11:30:47.557Z,64.83
2023-12-03T11:31:47.471Z,63.79
2023-12-03T11:32:48.936Z,65.04
2023-12-03T11:33:47.542Z,64.45
2023-12-03T11:34:47.496Z,64.34
2023-12-03T11:35:47.377Z,63.13
2023-12-03T11:36:47.819Z,64.23
2023-12-03T11:37:47.310Z,65.70
2023-12-03T11:38:47.285Z,67.68
2023-12-03T11:39:47.321Z,67.13
2023-12-03T11:40:47.267Z,66.51
2023-12-03T11:41:47.249Z,66.99
2023-12-03T11:42:47.394Z,65.31
2023-12-03T11:43:47.460Z,65.20
2023-12-03T11:44:47.196Z,65.28
2023-12-03T11:45:47.233Z,63.79
2023-12-03T11:46:47.173Z,63.90
2023-12-03T11:47:47.274Z,63.38
2023-12-03T11:48:47.288Z,63.38
2023-12-03T11:49:47.171Z,62.79
2023-12-03T11:50:47.171Z,63.51
2023-12-03T11:51:47.134Z,64.76
2023-12-03T11:52:47.130Z,64.83
2023-12-03T11:53:47.094Z,64.21
2023-12-03T11:54:47.188Z,63.28
2023-12-03T11:55:47.067Z,63.28
2023-12-03T11:56:47.058Z,63.17
2023-12-03T11:57:47.175Z,62.87
2023-12-03T11:58:47.004Z,63.10
2023-12-03T11:59:47.030Z,64.55
2023-12-03T12:00:47.106Z,63.72
2023-12-03T12:01:47.898Z,62.99
2023-12-03T12:02:47.035Z,61.86
2023-12-03T12:03:46.968Z,61.13
2023-12-03T12:04:46.940Z,62.82
2023-12-03T12:05:46.980Z,63.41
2023-12-03T12:06:46.959Z,63.10
2023-12-03T12:07:46.908Z,63.41
2023-12-03T12:08:46.920Z,64.31
2023-12-03T12:09:46.922Z,62.21
2023-12-03T12:10:48.517Z,60.69
2023-12-03T12:11:46.852Z,62.14
2023-12-03T12:12:46.910Z,60.97
2023-12-03T12:13:46.848Z,60.77
2023-12-03T12:14:46.868Z,60.11
2023-12-03T12:15:46.861Z,61.67
2023-12-03T12:16:46.784Z,61.64
2023-12-03T12:17:46.841Z,59.70
2023-12-03T12:18:46.835Z,59.70
2023-12-03T12:19:46.848Z,60.97
2023-12-03T12:20:46.766Z,60.97
2023-12-03T12:21:46.735Z,60.66
2023-12-03T12:22:46.698Z,60.94
2023-12-03T12:23:46.685Z,61.36
2023-12-03T12:24:46.776Z,61.25
2023-12-03T12:25:46.702Z,60.22
2023-12-03T12:26:46.731Z,61.77
2023-12-03T12:27:46.667Z,61.87
2023-12-03T12:28:46.617Z,61.12
2023-12-03T12:29:46.611Z,60.32
2023-12-03T12:30:46.689Z,61.05
2023-12-03T12:31:46.610Z,60.97
2023-12-03T12:32:46.602Z,62.01
2023-12-03T12:33:46.619Z,62.29
2023-12-03T12:34:46.572Z,61.57
2023-12-03T12:35:46.521Z,61.15
2023-12-03T12:36:46.571Z,61.46
2023-12-03T12:37:46.519Z,61.46
2023-12-03T12:38:46.475Z,61.36
2023-12-03T12:39:46.495Z,60.53
2023-12-03T12:40:46.476Z,60.53
2023-12-03T12:41:46.434Z,60.84
2023-12-03T12:42:46.876Z,61.38
2023-12-03T12:43:46.404Z,62.01
2023-12-03T12:44:49.499Z,61.77
2023-12-03T12:45:46.458Z,61.57
2023-12-03T12:46:46.412Z,61.36
2023-12-03T12:47:46.368Z,60.94
2023-12-03T12:48:46.560Z,60.63
2023-12-03T12:49:46.429Z,60.01
2023-12-03T12:50:46.311Z,60.77
2023-12-03T12:51:46.338Z,60.25
2023-12-03T12:52:46.297Z,61.18